Time;durP1;ratioP1;P1;durP2;ratioP2;P2;SDS_P1;SDS_P2;PMS_P1;PMS_P2;Temp;Humidity;BMP_temperature;BMP_pressure;BME280_temperature;BME280_humidity;BME280_pressure;Samples;Min_cycle;Max_cycle;Signal;HPM_P1;HPM_P2
2023/06/15 00:02:20;;;;;;;4.45;1.00;;;19.60;78.50;;;;;;5028304;28;20142;-71
2023/06/15 00:04:46;;;;;;;3.65;0.85;;;19.60;78.70;;;;;;5012047;28;20061;-71
2023/06/15 00:07:12;;;;;;;4.45;0.80;;;19.60;79.20;;;;;;5010045;28;20118;-72
2023/06/15 00:09:37;;;;;;;1.85;0.80;;;19.50;79.50;;;;;;5027383;28;20080;-73
2023/06/15 00:12:03;;;;;;;2.35;0.88;;;19.40;79.90;;;;;;5009399;28;20049;-72
2023/06/15 00:14:28;;;;;;;3.58;0.70;;;19.40;80.20;;;;;;5009879;28;20065;-72
2023/06/15 00:16:54;;;;;;;3.85;0.65;;;19.40;80.30;;;;;;5025589;28;20037;-73
2023/06/15 00:19:20;;;;;;;1.67;0.70;;;19.30;81.00;;;;;;5009340;28;20037;-73
2023/06/15 00:21:48;;;;;;;5.65;0.90;;;19.30;80.80;;;;;;5008953;28;20065;-73
2023/06/15 00:24:14;;;;;;;2.53;0.95;;;19.20;81.20;;;;;;5009198;28;20037;-73
2023/06/15 00:26:40;;;;;;;1.70;0.90;;;19.20;81.60;;;;;;5009827;28;20037;-72
2023/06/15 00:29:05;;;;;;;2.40;0.98;;;19.10;81.80;;;;;;5026038;28;20051;-72
2023/06/15 00:31:31;;;;;;;3.08;0.75;;;19.10;82.30;;;;;;5027581;28;20397;-72
2023/06/15 00:33:57;;;;;;;1.83;1.00;;;19.00;82.30;;;;;;5008494;28;20033;-73
2023/06/15 00:36:22;;;;;;;4.43;1.00;;;19.00;82.80;;;;;;5009955;28;20040;-73
2023/06/15 00:38:48;;;;;;;3.90;1.35;;;18.90;83.30;;;;;;5008903;28;20037;-73
2023/06/15 00:41:14;;;;;;;3.00;1.10;;;18.90;83.80;;;;;;5027245;28;20091;-72
2023/06/15 00:43:41;;;;;;;3.03;1.08;;;18.80;84.00;;;;;;5027854;28;20115;-73
2023/06/15 00:46:07;;;;;;;2.67;1.00;;;18.80;84.20;;;;;;5008582;28;21063;-73
2023/06/15 00:48:33;;;;;;;7.45;1.13;;;18.80;84.50;;;;;;5027331;28;20041;-72
2023/06/15 00:50:59;;;;;;;2.53;1.05;;;18.80;84.60;;;;;;5008096;28;20025;-72
2023/06/15 00:53:25;;;;;;;5.35;1.30;;;18.80;84.90;;;;;;5009961;28;20430;-71
2023/06/15 00:55:51;;;;;;;2.17;1.00;;;18.80;85.10;;;;;;5008744;28;20037;-72
2023/06/15 00:58:17;;;;;;;2.22;1.40;;;18.70;85.40;;;;;;5028842;28;20740;-72
2023/06/15 01:00:48;;;;;;;7.22;2.35;;;18.70;85.80;;;;;;5026140;28;20048;-72
2023/06/15 01:03:15;;;;;;;4.75;1.20;;;18.70;85.70;;;;;;5026549;28;20453;-73
2023/06/15 01:05:44;;;;;;;3.38;1.13;;;18.70;85.80;;;;;;5031915;28;20727;-72
2023/06/15 01:08:13;;;;;;;3.17;1.00;;;18.70;86.20;;;;;;5012180;28;20055;-72
2023/06/15 01:10:39;;;;;;;4.65;1.08;;;18.70;86.40;;;;;;5031822;28;20045;-72
2023/06/15 01:13:07;;;;;;;2.67;1.08;;;18.60;87.20;;;;;;5030714;28;20056;-72
2023/06/15 01:15:33;;;;;;;5.97;1.30;;;18.50;87.00;;;;;;5030426;28;20493;-72
2023/06/15 01:17:59;;;;;;;1.85;1.02;;;18.50;87.00;;;;;;5026548;28;20037;-72
2023/06/15 01:20:30;;;;;;;3.30;1.00;;;18.50;87.30;;;;;;5011520;28;20516;-72
2023/06/15 01:23:01;;;;;;;4.18;1.00;;;18.40;87.60;;;;;;5008324;28;20109;-72
2023/06/15 01:25:53;;;;;;;6.32;0.88;;;18.40;87.90;;;;;;5027092;28;20034;-73
2023/06/15 01:28:20;;;;;;;2.95;1.25;;;18.40;88.30;;;;;;5011665;28;20053;-72
2023/06/15 01:30:52;;;;;;;3.05;1.35;;;18.30;88.40;;;;;;5012674;28;20559;-72
2023/06/15 01:33:18;;;;;;;2.92;0.88;;;18.30;88.50;;;;;;5030454;28;20037;-73
2023/06/15 01:35:44;;;;;;;3.75;1.17;;;18.30;88.70;;;;;;5013359;28;20037;-72
2023/06/15 01:38:11;;;;;;;9.68;2.15;;;18.30;89.10;;;;;;5011609;28;20034;-73
2023/06/15 01:40:44;;;;;;;7.28;1.60;;;18.20;89.30;;;;;;5012454;28;20431;-72
2023/06/15 01:43:11;;;;;;;4.95;1.40;;;18.20;89.60;;;;;;5029655;28;20025;-73
2023/06/15 01:45:39;;;;;;;3.28;1.52;;;18.20;89.90;;;;;;5030678;28;20030;-72
2023/06/15 01:48:06;;;;;;;4.90;1.25;;;18.10;90.00;;;;;;5011817;28;20022;-72
2023/06/15 01:50:33;;;;;;;1.77;1.02;;;18.10;90.10;;;;;;5030055;28;20034;-72
2023/06/15 01:52:59;;;;;;;1.83;1.02;;;18.00;90.20;;;;;;5011495;28;20037;-73
2023/06/15 01:55:25;;;;;;;2.00;1.10;;;18.00;90.20;;;;;;5012651;28;20029;-72
2023/06/15 01:57:53;;;;;;;1.60;0.93;;;18.00;90.40;;;;;;5011768;28;20033;-71
2023/06/15 02:00:20;;;;;;;4.20;1.30;;;18.00;90.40;;;;;;5030370;28;20498;-73
2023/06/15 02:02:45;;;;;;;2.53;1.00;;;18.00;90.50;;;;;;5030410;28;20037;-71
2023/06/15 02:05:11;;;;;;;2.13;0.85;;;17.90;90.70;;;;;;5012442;28;20040;-72
2023/06/15 02:07:37;;;;;;;4.05;1.10;;;18.00;90.80;;;;;;5030320;28;20041;-71
2023/06/15 02:10:03;;;;;;;3.90;1.05;;;18.00;90.60;;;;;;5011223;28;20060;-72
2023/06/15 02:12:28;;;;;;;3.15;1.25;;;18.00;90.70;;;;;;5030078;28;20041;-71
2023/06/15 02:14:54;;;;;;;2.30;1.00;;;17.90;90.70;;;;;;5029348;28;20397;-74
2023/06/15 02:17:19;;;;;;;7.50;1.60;;;17.90;90.90;;;;;;5029825;28;20694;-73
2023/06/15 02:19:46;;;;;;;6.95;1.23;;;17.90;90.90;;;;;;5011707;28;20041;-72
2023/06/15 02:22:12;;;;;;;7.13;1.80;;;17.90;91.00;;;;;;5010962;28;20056;-73
2023/06/15 02:24:37;;;;;;;6.57;1.10;;;17.90;91.10;;;;;;5012288;28;20042;-72
2023/06/15 02:27:03;;;;;;;4.03;1.75;;;17.80;91.20;;;;;;5028900;28;20493;-72
2023/06/15 02:29:29;;;;;;;2.85;1.52;;;17.80;91.20;;;;;;5011379;28;20037;-71
2023/06/15 02:31:54;;;;;;;3.10;1.10;;;17.90;91.30;;;;;;5028337;28;20046;-73
2023/06/15 02:34:20;;;;;;;5.03;1.40;;;17.90;91.30;;;;;;5029146;28;20394;-72
2023/06/15 02:36:48;;;;;;;3.83;1.13;;;17.90;91.30;;;;;;5012251;28;21404;-72
2023/06/15 02:39:14;;;;;;;2.15;1.48;;;17.90;91.40;;;;;;5010954;28;20071;-71
2023/06/15 02:41:40;;;;;;;8.10;1.67;;;17.80;91.40;;;;;;5011964;28;20168;-74
2023/06/15 02:44:07;;;;;;;4.07;1.60;;;17.80;91.60;;;;;;5010457;28;20044;-73
2023/06/15 02:46:33;;;;;;;5.15;1.45;;;17.70;91.80;;;;;;5011569;28;20044;-72
2023/06/15 02:48:58;;;;;;;4.00;1.65;;;17.70;92.00;;;;;;5010411;28;20041;-73
2023/06/15 02:51:24;;;;;;;5.00;1.60;;;17.70;91.90;;;;;;5011696;28;20087;-72
2023/06/15 02:53:50;;;;;;;7.05;1.58;;;17.60;92.10;;;;;;5010936;28;20033;-72
2023/06/15 02:56:18;;;;;;;6.03;1.60;;;17.60;92.10;;;;;;5029595;28;20148;-72
2023/06/15 02:58:54;;;;;;;2.70;1.63;;;17.60;92.30;;;;;;5011203;28;20107;-73
2023/06/15 03:01:23;;;;;;;2.30;1.17;;;17.50;92.40;;;;;;5006719;28;20037;-72
2023/06/15 03:03:50;;;;;;;4.97;1.30;;;17.50;92.50;;;;;;5010742;28;20040;-72
2023/06/15 03:06:16;;;;;;;2.65;1.10;;;17.40;92.50;;;;;;5029218;28;20061;-73
2023/06/15 03:08:42;;;;;;;5.70;1.52;;;17.50;92.70;;;;;;5011381;28;20037;-73
2023/06/15 03:11:08;;;;;;;3.00;0.95;;;17.40;92.80;;;;;;5009836;28;20041;-73
2023/06/15 03:13:35;;;;;;;4.60;1.48;;;17.30;93.00;;;;;;5011622;28;20041;-72
2023/06/15 03:16:01;;;;;;;6.60;1.60;;;17.30;93.20;;;;;;5010546;28;20049;-73
2023/06/15 03:18:28;;;;;;;4.15;1.50;;;17.30;93.20;;;;;;5028791;28;20542;-72
2023/06/15 03:20:54;;;;;;;4.07;1.60;;;17.30;93.20;;;;;;5009840;28;20128;-72
2023/06/15 03:23:20;;;;;;;2.72;1.42;;;17.30;93.30;;;;;;5028843;28;20105;-72
2023/06/15 03:25:45;;;;;;;5.05;1.60;;;17.20;93.50;;;;;;5011048;28;20393;-72
2023/06/15 03:28:11;;;;;;;9.50;2.33;;;17.20;93.60;;;;;;5027691;28;20318;-72
2023/06/15 03:30:40;;;;;;;3.67;1.50;;;17.20;93.80;;;;;;5010738;28;20026;-72
2023/06/15 03:33:06;;;;;;;6.00;2.00;;;17.10;93.90;;;;;;5009795;28;20056;-73
2023/06/15 03:35:33;;;;;;;3.00;1.20;;;17.10;94.10;;;;;;5028055;28;20038;-72
2023/06/15 03:37:58;;;;;;;4.80;1.65;;;17.00;94.10;;;;;;5009501;28;20029;-72
2023/06/15 03:40:24;;;;;;;2.83;1.65;;;17.00;94.30;;;;;;5010230;28;20025;-73
2023/06/15 03:42:49;;;;;;;2.60;0.90;;;17.00;94.50;;;;;;5008882;28;20029;-72
2023/06/15 03:45:15;;;;;;;5.97;1.92;;;17.00;94.70;;;;;;5027903;28;20044;-72
2023/06/15 03:47:41;;;;;;;3.05;1.65;;;17.00;94.60;;;;;;5010503;28;20133;-71
2023/06/15 03:50:07;;;;;;;6.30;2.25;;;17.00;94.70;;;;;;5009204;28;20048;-72
2023/06/15 03:52:33;;;;;;;7.03;1.25;;;17.10;94.70;;;;;;5010237;28;20034;-72
2023/06/15 03:54:59;;;;;;;5.43;1.50;;;17.10;94.80;;;;;;5009310;28;20036;-73
2023/06/15 03:57:25;;;;;;;3.10;1.50;;;17.10;94.90;;;;;;5014420;28;20034;-73
2023/06/15 03:59:51;;;;;;;3.00;1.73;;;17.00;95.00;;;;;;5026959;28;20039;-73
2023/06/15 04:02:17;;;;;;;3.05;1.52;;;17.00;95.10;;;;;;5023910;28;20117;-72
2023/06/15 04:04:42;;;;;;;7.50;2.03;;;17.00;95.10;;;;;;5032019;28;20120;-73
2023/06/15 04:07:09;;;;;;;3.45;1.80;;;17.00;95.20;;;;;;5027743;28;20103;-72
2023/06/15 04:09:35;;;;;;;4.07;1.30;;;17.00;95.30;;;;;;5011917;28;20045;-72
2023/06/15 04:12:01;;;;;;;7.90;1.60;;;17.10;95.40;;;;;;5011383;28;20037;-73
2023/06/15 04:14:26;;;;;;;9.65;2.05;;;17.00;95.60;;;;;;5030514;28;20033;-72
2023/06/15 04:16:52;;;;;;;3.75;1.20;;;17.10;95.70;;;;;;5027379;28;20036;-73
2023/06/15 04:19:22;;;;;;;4.22;1.45;;;17.00;95.70;;;;;;5009428;28;20039;-73
2023/06/15 04:21:48;;;;;;;3.08;1.27;;;17.10;95.80;;;;;;5024142;28;20040;-73
2023/06/15 04:24:14;;;;;;;5.72;2.00;;;17.10;95.90;;;;;;5027204;28;20061;-73
2023/06/15 04:26:41;;;;;;;5.38;2.00;;;17.10;96.00;;;;;;5009794;28;21070;-72
2023/06/15 04:29:08;;;;;;;4.03;1.65;;;17.10;95.90;;;;;;5008588;28;20079;-73
2023/06/15 04:31:33;;;;;;;6.07;1.63;;;17.20;95.70;;;;;;5008648;28;20068;-73
2023/06/15 04:34:00;;;;;;;3.72;1.38;;;17.20;95.80;;;;;;5025782;28;20057;-73
2023/06/15 04:36:27;;;;;;;3.42;1.50;;;17.20;96.10;;;;;;5027821;28;20033;-72
2023/06/15 04:38:53;;;;;;;4.78;1.75;;;17.30;95.70;;;;;;5026340;28;20402;-72
2023/06/15 04:41:22;;;;;;;4.43;1.77;;;17.40;95.60;;;;;;5027408;28;20025;-72
2023/06/15 04:43:48;;;;;;;5.18;1.52;;;17.40;95.50;;;;;;5024398;28;20033;-74
2023/06/15 04:46:14;;;;;;;3.33;1.60;;;17.40;95.40;;;;;;5027702;28;20075;-72
2023/06/15 04:48:43;;;;;;;3.33;1.88;;;17.50;95.40;;;;;;5007587;28;20033;-72
2023/06/15 04:51:09;;;;;;;5.10;2.08;;;17.50;95.30;;;;;;5025583;28;20725;-73
2023/06/15 04:53:35;;;;;;;6.65;1.80;;;17.50;95.50;;;;;;5008760;28;20706;-74
2023/06/15 04:56:01;;;;;;;3.78;1.73;;;17.50;95.40;;;;;;5008630;28;20040;-72
2023/06/15 04:58:27;;;;;;;6.35;1.98;;;17.50;95.70;;;;;;5010776;28;20045;-71
2023/06/15 05:00:52;;;;;;;4.38;1.25;;;17.50;95.80;;;;;;5005661;28;20052;-72
2023/06/15 05:03:18;;;;;;;5.47;1.50;;;17.40;95.90;;;;;;5004691;28;20026;-72
2023/06/15 05:05:44;;;;;;;9.18;1.40;;;17.50;96.00;;;;;;5007353;28;20022;-72
2023/06/15 05:08:11;;;;;;;7.22;1.67;;;17.60;96.10;;;;;;5004243;28;20094;-72
2023/06/15 05:10:37;;;;;;;6.32;1.70;;;17.60;95.90;;;;;;5006541;28;20124;-71
2023/06/15 05:13:03;;;;;;;2.55;1.48;;;17.70;95.70;;;;;;5007011;28;20582;-72
2023/06/15 05:15:29;;;;;;;3.65;1.50;;;17.70;95.60;;;;;;5026278;28;20120;-73
2023/06/15 05:17:54;;;;;;;13.77;1.60;;;17.70;95.60;;;;;;5007701;28;20037;-74
2023/06/15 05:20:20;;;;;;;4.60;1.52;;;17.80;95.90;;;;;;5006838;28;20025;-74
2023/06/15 05:22:46;;;;;;;4.05;1.30;;;17.80;96.10;;;;;;5007969;28;20143;-72
2023/06/15 05:25:11;;;;;;;3.08;1.45;;;17.80;96.20;;;;;;5024577;28;20042;-73
2023/06/15 05:27:37;;;;;;;6.40;1.95;;;17.90;96.20;;;;;;5025882;28;20034;-72
2023/06/15 05:30:07;;;;;;;13.13;1.85;;;17.90;96.00;;;;;;5006098;28;20037;-72
2023/06/15 05:32:37;;;;;;;4.28;1.70;;;18.00;95.80;;;;;;5025715;28;20037;-73
2023/06/15 05:35:04;;;;;;;3.88;1.77;;;18.10;95.50;;;;;;5006835;28;20122;-71
2023/06/15 05:37:30;;;;;;;4.53;1.80;;;18.20;95.40;;;;;;5025813;28;20046;-72
2023/06/15 05:39:55;;;;;;;3.95;1.50;;;18.30;95.00;;;;;;5024044;28;20033;-73
2023/06/15 05:42:21;;;;;;;6.40;1.60;;;18.40;95.10;;;;;;5027241;28;20045;-72
2023/06/15 05:44:46;;;;;;;5.45;1.55;;;18.80;93.90;;;;;;5030884;28;20108;-72
2023/06/15 05:47:12;;;;;;;6.40;1.95;;;19.10;93.20;;;;;;5010192;28;20095;-72
2023/06/15 05:49:37;;;;;;;5.30;1.67;;;19.50;92.70;;;;;;5025378;28;20083;-72
2023/06/15 05:52:03;;;;;;;4.35;1.42;;;19.80;92.40;;;;;;5007093;28;20032;-71
2023/06/15 05:54:29;;;;;;;4.97;1.80;;;20.20;92.10;;;;;;5026009;28;20046;-71
2023/06/15 05:56:54;;;;;;;2.25;1.40;;;20.60;91.80;;;;;;5025236;28;20034;-72
2023/06/15 05:59:20;;;;;;;9.05;1.73;;;21.00;90.70;;;;;;5008112;28;20041;-72
2023/06/15 06:01:45;;;;;;;6.85;1.40;;;21.50;90.30;;;;;;5008306;28;20037;-71
2023/06/15 06:04:11;;;;;;;4.47;1.52;;;21.70;89.40;;;;;;5008175;28;20041;-72
2023/06/15 06:06:36;;;;;;;7.88;1.70;;;22.00;89.40;;;;;;5008326;28;20057;-73
2023/06/15 06:09:02;;;;;;;7.13;2.00;;;22.20;86.20;;;;;;5009400;28;20037;-72
2023/06/15 06:11:28;;;;;;;5.82;1.48;;;22.30;85.30;;;;;;5028392;28;20119;-73
2023/06/15 06:13:53;;;;;;;7.10;2.10;;;22.40;85.90;;;;;;5010393;28;20459;-73
2023/06/15 06:16:19;;;;;;;2.30;1.20;;;22.50;85.30;;;;;;5028555;28;20095;-72
2023/06/15 06:18:44;;;;;;;4.13;1.48;;;22.50;85.00;;;;;;5024670;28;20492;-72
2023/06/15 06:21:10;;;;;;;5.60;1.85;;;22.50;84.10;;;;;;5027257;28;20355;-75
2023/06/15 06:23:36;;;;;;;3.30;1.60;;;22.50;84.90;;;;;;5028583;28;20522;-73
2023/06/15 06:26:02;;;;;;;5.43;2.00;;;22.50;84.50;;;;;;5027585;28;20072;-73
2023/06/15 06:28:28;;;;;;;5.55;2.03;;;22.40;83.80;;;;;;5027785;28;20466;-72
2023/06/15 06:30:54;;;;;;;7.28;1.75;;;22.50;84.30;;;;;;5008976;28;20096;-74
2023/06/15 06:33:19;;;;;;;4.28;1.20;;;22.60;83.80;;;;;;5010692;28;20033;-73
2023/06/15 06:35:45;;;;;;;3.70;1.77;;;22.70;84.10;;;;;;5007243;28;20048;-73
2023/06/15 06:38:11;;;;;;;4.18;1.55;;;22.80;84.30;;;;;;5011383;28;20029;-70
2023/06/15 06:40:36;;;;;;;3.42;1.55;;;23.00;82.40;;;;;;5028819;28;20494;-73
2023/06/15 06:43:03;;;;;;;4.93;2.10;;;23.20;83.00;;;;;;5009546;28;20385;-71
2023/06/15 06:45:28;;;;;;;5.68;1.88;;;23.30;81.70;;;;;;5010639;28;20046;-73
2023/06/15 06:47:54;;;;;;;4.53;1.40;;;23.40;82.50;;;;;;5027120;28;20030;-71
2023/06/15 06:50:19;;;;;;;4.45;1.42;;;23.40;82.30;;;;;;5010022;28;20494;-71
2023/06/15 06:52:45;;;;;;;6.70;1.98;;;23.60;80.90;;;;;;5010205;28;20029;-72
2023/06/15 06:55:10;;;;;;;6.30;1.77;;;23.90;80.20;;;;;;5009355;28;20033;-72
2023/06/15 06:57:36;;;;;;;4.18;1.33;;;24.00;80.80;;;;;;5011635;28;20465;-73
2023/06/15 07:00:03;;;;;;;3.97;1.70;;;24.30;79.90;;;;;;5026489;28;20481;-72
2023/06/15 07:02:28;;;;;;;8.50;1.60;;;24.60;79.50;;;;;;5028058;28;20111;-71
2023/06/15 07:04:54;;;;;;;8.13;2.40;;;25.20;78.60;;;;;;5028075;28;20037;-71
2023/06/15 07:07:19;;;;;;;5.70;1.83;;;25.70;76.60;;;;;;5010479;28;20129;-72
2023/06/15 07:09:45;;;;;;;6.10;2.58;;;26.30;75.20;;;;;;5028824;28;20084;-72
2023/06/15 07:12:11;;;;;;;3.08;1.90;;;27.40;72.90;;;;;;5031368;28;20056;-71
2023/06/15 07:14:36;;;;;;;4.03;2.00;;;28.40;72.40;;;;;;5033689;28;20143;-72
2023/06/15 07:17:02;;;;;;;5.07;2.08;;;29.30;70.10;;;;;;5034002;28;20442;-73
2023/06/15 07:19:27;;;;;;;5.22;2.13;;;29.90;69.70;;;;;;5027421;28;20120;-73
2023/06/15 07:21:53;;;;;;;8.10;2.40;;;30.60;68.00;;;;;;5026982;28;20034;-72
2023/06/15 07:24:18;;;;;;;8.73;3.00;;;30.90;66.00;;;;;;5028092;28;20110;-75
2023/06/15 07:26:44;;;;;;;5.88;2.55;;;31.40;65.40;;;;;;5009836;28;20416;-72
2023/06/15 07:29:10;;;;;;;4.45;2.35;;;31.80;65.70;;;;;;5026804;28;20412;-72
2023/06/15 07:31:35;;;;;;;9.20;2.47;;;32.70;60.90;;;;;;5032618;28;20148;-73
2023/06/15 07:34:02;;;;;;;11.30;3.00;;;33.30;59.90;;;;;;5029152;28;20033;-73
2023/06/15 07:36:28;;;;;;;15.13;2.95;;;33.70;61.80;;;;;;5027766;28;20034;-73
2023/06/15 07:38:54;;;;;;;6.38;3.30;;;34.00;62.50;;;;;;5026314;28;20831;-73
2023/06/15 07:41:20;;;;;;;9.45;3.42;;;34.30;60.30;;;;;;5027018;28;20055;-75
2023/06/15 07:43:45;;;;;;;6.85;3.25;;;35.00;60.20;;;;;;5009717;28;20042;-75
2023/06/15 07:46:11;;;;;;;9.30;3.40;;;35.10;59.90;;;;;;5026674;28;20056;-73
2023/06/15 07:48:36;;;;;;;10.65;3.38;;;35.40;59.50;;;;;;5027160;28;20037;-73
2023/06/15 07:51:02;;;;;;;6.00;3.17;;;35.80;59.20;;;;;;5026321;28;20091;-73
2023/06/15 07:53:28;;;;;;;9.05;3.03;;;35.60;58.70;;;;;;5009537;28;20055;-73
2023/06/15 07:55:53;;;;;;;8.23;2.97;;;35.50;57.60;;;;;;5025997;28;20721;-72
2023/06/15 07:58:19;;;;;;;5.68;3.38;;;35.70;58.40;;;;;;5027620;28;20029;-73
2023/06/15 08:00:45;;;;;;;9.23;3.15;;;35.70;58.70;;;;;;5027195;28;20029;-72
2023/06/15 08:03:10;;;;;;;4.57;3.08;;;35.50;57.70;;;;;;5026028;28;20025;-73
2023/06/15 08:05:36;;;;;;;10.30;3.38;;;35.10;57.90;;;;;;5027185;28;20064;-73
2023/06/15 08:08:02;;;;;;;13.52;3.30;;;34.90;58.20;;;;;;5026847;28;20064;-74
2023/06/15 08:10:29;;;;;;;11.70;3.08;;;34.70;58.30;;;;;;5026516;28;20041;-73
2023/06/15 08:12:55;;;;;;;6.32;3.20;;;34.50;59.00;;;;;;5025974;28;20401;-72
2023/06/15 08:15:21;;;;;;;8.65;3.10;;;34.00;59.10;;;;;;5026948;28;20091;-73
2023/06/15 08:17:46;;;;;;;13.95;3.70;;;34.10;59.20;;;;;;5027416;28;20530;-73
2023/06/15 08:20:13;;;;;;;12.57;2.70;;;33.50;58.90;;;;;;5027302;28;20091;-71
2023/06/15 08:22:38;;;;;;;12.75;2.75;;;33.30;59.50;;;;;;5014885;28;20117;-73
2023/06/15 08:25:05;;;;;;;5.78;2.35;;;32.30;60.30;;;;;;5037204;28;20056;-73
2023/06/15 08:27:31;;;;;;;9.43;2.42;;;31.50;60.60;;;;;;5017315;28;20044;-73
2023/06/15 08:29:57;;;;;;;7.13;2.42;;;30.80;61.10;;;;;;5008401;28;20030;-72
2023/06/15 08:32:23;;;;;;;8.85;2.05;;;30.20;62.40;;;;;;5027328;28;20057;-73
2023/06/15 08:34:49;;;;;;;2.75;1.77;;;30.00;63.30;;;;;;5026461;28;20061;-71
2023/06/15 08:37:15;;;;;;;4.57;1.85;;;29.70;63.30;;;;;;5025729;28;20045;-71
2023/06/15 08:39:40;;;;;;;8.32;2.15;;;29.50;64.10;;;;;;5009071;28;20056;-72
2023/06/15 08:42:09;;;;;;;3.40;1.30;;;29.10;64.30;;;;;;5025636;28;20041;-72
2023/06/15 08:44:35;;;;;;;4.80;1.58;;;28.90;65.10;;;;;;5026424;28;20033;-72
2023/06/15 08:47:03;;;;;;;9.20;1.50;;;28.90;66.10;;;;;;5005607;28;20041;-72
2023/06/15 08:49:30;;;;;;;7.43;1.92;;;28.90;64.60;;;;;;5008111;28;20447;-74
2023/06/15 08:51:58;;;;;;;4.70;1.70;;;28.90;63.50;;;;;;5007501;28;20112;-72
2023/06/15 08:54:27;;;;;;;5.47;1.88;;;29.00;61.70;;;;;;5025846;28;20382;-73
2023/06/15 08:56:53;;;;;;;3.50;1.13;;;29.00;63.00;;;;;;5026549;28;20037;-73
2023/06/15 08:59:21;;;;;;;10.90;1.38;;;28.90;63.10;;;;;;5025632;28;20037;-72
2023/06/15 09:01:47;;;;;;;3.88;1.15;;;28.80;62.80;;;;;;5007647;28;20045;-72
2023/06/15 09:04:15;;;;;;;2.92;1.40;;;28.70;63.00;;;;;;5009026;28;20060;-73
2023/06/15 09:06:41;;;;;;;13.45;1.23;;;28.70;60.90;;;;;;5026579;28;20049;-73
2023/06/15 09:09:09;;;;;;;5.60;1.13;;;28.80;63.30;;;;;;5005055;28;20029;-73
2023/06/15 09:11:40;;;;;;;11.43;1.85;;;28.70;64.80;;;;;;5022431;28;20044;-73
2023/06/15 09:14:10;;;;;;;3.42;1.45;;;28.70;65.40;;;;;;5022075;28;20045;-72
2023/06/15 09:16:35;;;;;;;;;;;28.70;65.10;;;;;;5009479;28;20057;-72
2023/06/15 09:19:01;;;;;;;7.40;1.52;;;28.60;65.40;;;;;;5026732;28;19948;-71
2023/06/15 09:21:28;;;;;;;3.47;1.48;;;28.60;66.10;;;;;;5027188;28;20124;-71
2023/06/15 09:24:03;;;;;;;9.63;1.63;;;28.70;66.10;;;;;;5007073;28;20049;-72
2023/06/15 09:26:29;;;;;;;4.43;0.95;;;28.60;65.90;;;;;;5007173;28;20075;-72
2023/06/15 09:28:57;;;;;;;4.60;1.60;;;28.40;65.10;;;;;;5005286;28;20133;-72
2023/06/15 09:31:36;;;;;;;3.63;1.35;;;28.30;65.40;;;;;;5005712;28;20037;-73
2023/06/15 09:34:10;;;;;;;2.92;1.20;;;28.00;66.10;;;;;;5003511;28;20125;-72
2023/06/15 09:36:44;;;;;;;4.03;1.38;;;28.10;66.90;;;;;;5022593;28;20033;-73
2023/06/15 09:39:12;;;;;;;3.92;1.48;;;28.00;68.30;;;;;;5000341;28;20133;-73
2023/06/15 09:42:00;;;;;;;8.90;1.77;;;27.80;68.10;;;;;;5007535;28;20045;-73
2023/06/15 09:44:26;;;;;;;5.22;1.33;;;27.50;69.10;;;;;;5008352;28;20046;-73
2023/06/15 09:46:53;;;;;;;2.13;1.23;;;27.20;68.00;;;;;;5008241;28;20065;-72
2023/06/15 09:49:26;;;;;;;6.05;1.33;;;26.90;67.40;;;;;;5026068;28;20053;-72
2023/06/15 09:51:53;;;;;;;2.25;1.08;;;26.80;68.30;;;;;;5008811;28;20121;-73
2023/06/15 09:54:22;;;;;;;5.13;1.20;;;26.90;68.40;;;;;;5027044;28;20033;-73
2023/06/15 09:56:50;;;;;;;6.10;1.58;;;26.90;67.50;;;;;;5010201;28;20041;-72
2023/06/15 09:59:16;;;;;;;3.30;1.15;;;27.00;66.80;;;;;;5008082;28;20499;-72
2023/06/15 10:01:45;;;;;;;4.63;1.30;;;27.20;66.90;;;;;;5026599;28;20107;-72
2023/06/15 10:04:13;;;;;;;2.50;1.45;;;27.40;66.30;;;;;;5008777;28;20461;-72
2023/06/15 10:06:41;;;;;;;2.67;1.35;;;27.60;66.70;;;;;;5027691;28;20038;-73
2023/06/15 10:09:09;;;;;;;7.68;1.40;;;27.80;64.70;;;;;;5008018;28;20434;-72
2023/06/15 10:11:41;;;;;;;2.17;1.20;;;27.80;63.70;;;;;;5029160;28;20105;-72
2023/06/15 10:14:11;;;;;;;1.77;1.13;;;27.90;63.90;;;;;;5020944;28;20041;-71
2023/06/15 10:16:38;;;;;;;5.97;1.45;;;28.00;63.70;;;;;;5042201;28;20132;-73
2023/06/15 10:19:05;;;;;;;9.75;1.38;;;28.20;63.20;;;;;;5029339;28;20098;-73
2023/06/15 10:21:36;;;;;;;3.40;1.15;;;28.10;62.80;;;;;;5012614;28;20064;-73
2023/06/15 10:24:09;;;;;;;3.35;1.30;;;28.10;63.30;;;;;;5007157;28;20049;-73
2023/06/15 10:26:35;;;;;;;5.15;1.70;;;28.10;62.60;;;;;;5025769;28;20037;-72
2023/06/15 10:29:12;;;;;;;4.82;1.02;;;28.20;62.30;;;;;;5005985;28;20565;-71
2023/06/15 10:31:45;;;;;;;3.65;1.30;;;28.40;61.90;;;;;;5006722;28;20109;-73
2023/06/15 10:34:22;;;;;;;4.07;1.30;;;28.50;61.80;;;;;;5006302;28;20049;-73
2023/06/15 10:37:12;;;;;;;2.50;1.08;;;28.50;58.80;;;;;;5006283;28;20052;-71
2023/06/15 10:39:44;;;;;;;4.07;1.05;;;28.50;58.80;;;;;;5005138;28;20114;-71
2023/06/15 10:42:13;;;;;;;4.07;1.13;;;28.50;59.10;;;;;;5023751;28;20065;-73
2023/06/15 10:44:39;;;;;;;6.65;1.30;;;28.50;59.20;;;;;;5026226;28;20060;-73
2023/06/15 10:47:07;;;;;;;4.93;0.80;;;28.60;57.80;;;;;;5007094;28;20029;-72
2023/06/15 10:49:33;;;;;;;2.50;1.30;;;28.40;57.60;;;;;;5024959;28;20034;-72
2023/06/15 10:52:00;;;;;;;7.50;1.40;;;28.30;58.80;;;;;;5024559;28;20040;-71
2023/06/15 10:54:28;;;;;;;3.47;1.40;;;28.40;58.20;;;;;;5025673;28;20045;-73
2023/06/15 10:56:57;;;;;;;3.08;1.00;;;28.60;59.00;;;;;;5006856;28;20071;-72
2023/06/15 10:59:49;;;;;;;2.90;0.90;;;28.80;59.50;;;;;;5026391;28;20370;-72
2023/06/15 11:02:33;;;;;;;5.65;1.13;;;28.70;58.70;;;;;;5024526;28;20041;-72
2023/06/15 11:05:08;;;;;;;3.30;1.05;;;28.80;59.50;;;;;;5008569;28;20442;-73
2023/06/15 11:07:47;;;;;;;6.57;1.33;;;28.80;59.00;;;;;;5010219;28;20402;-72
2023/06/15 11:10:15;;;;;;;4.90;1.67;;;28.80;59.20;;;;;;5027230;28;20040;-73
2023/06/15 11:12:43;;;;;;;2.97;1.08;;;28.90;58.80;;;;;;5027576;28;20376;-71
2023/06/15 11:15:14;;;;;;;3.90;1.52;;;28.60;58.20;;;;;;5008740;28;20041;-72
2023/06/15 11:17:52;;;;;;;1.83;1.30;;;28.10;58.00;;;;;;5008836;28;20037;-72
2023/06/15 11:20:44;;;;;;;3.72;0.93;;;27.70;58.70;;;;;;5025016;28;20041;-73
2023/06/15 11:23:11;;;;;;;3.47;0.90;;;27.80;58.90;;;;;;5023606;28;20048;-71
2023/06/15 11:25:48;;;;;;;3.45;1.48;;;27.90;60.10;;;;;;5024513;28;20030;-72
2023/06/15 11:28:20;;;;;;;6.38;0.80;;;28.10;59.30;;;;;;5024523;28;20115;-71
2023/06/15 11:30:47;;;;;;;7.30;1.27;;;28.20;58.70;;;;;;5007328;28;20041;-73
2023/06/15 11:33:13;;;;;;;3.55;1.10;;;28.40;57.60;;;;;;5025044;28;20026;-71
2023/06/15 11:35:39;;;;;;;1.95;0.80;;;28.60;58.60;;;;;;5007938;28;20034;-70
2023/06/15 11:38:07;;;;;;;3.42;1.05;;;28.60;58.30;;;;;;5006290;28;20486;-72
2023/06/15 11:40:33;;;;;;;1.20;0.80;;;28.70;59.50;;;;;;5007761;28;20041;-72
2023/06/15 11:42:59;;;;;;;3.70;1.05;;;28.80;58.40;;;;;;5006558;28;20045;-73
2023/06/15 11:45:25;;;;;;;1.77;0.80;;;28.70;57.90;;;;;;5008009;28;20041;-70
2023/06/15 11:47:51;;;;;;;2.20;0.95;;;28.80;56.00;;;;;;5024995;28;20132;-75
2023/06/15 11:50:18;;;;;;;1.48;0.63;;;28.70;58.10;;;;;;5007512;28;20048;-71
2023/06/15 11:52:44;;;;;;;1.27;1.00;;;28.60;58.50;;;;;;5007614;28;20051;-72
2023/06/15 11:55:10;;;;;;;6.15;1.08;;;28.70;59.10;;;;;;5024588;28;20458;-73
2023/06/15 11:57:37;;;;;;;1.15;0.82;;;28.80;59.60;;;;;;5027353;28;20656;-72
2023/06/15 12:00:07;;;;;;;4.45;0.90;;;28.80;59.10;;;;;;5012263;28;20065;-73
2023/06/15 12:02:34;;;;;;;4.75;0.93;;;28.60;58.90;;;;;;5017895;28;20041;-73
2023/06/15 12:05:00;;;;;;;3.38;0.90;;;28.50;58.70;;;;;;5011232;28;20059;-73
2023/06/15 12:07:26;;;;;;;2.72;0.70;;;28.50;59.30;;;;;;5024904;28;20124;-72
2023/06/15 12:09:52;;;;;;;1.50;1.00;;;28.50;58.90;;;;;;5007635;28;20436;-74
2023/06/15 12:12:36;;;;;;;4.68;0.80;;;28.40;58.90;;;;;;5007745;28;20088;-73
2023/06/15 12:15:03;;;;;;;4.45;1.48;;;28.30;59.90;;;;;;5024620;28;20073;-72
2023/06/15 12:17:33;;;;;;;4.00;1.23;;;28.20;59.90;;;;;;5006591;28;20037;-72
2023/06/15 12:20:13;;;;;;;;;;;28.30;61.10;;;;;;5024393;28;20252;-73
2023/06/15 12:22:46;;;;;;;4.60;1.00;;;28.20;61.70;;;;;;5023699;28;19917;-74
2023/06/15 12:25:13;;;;;;;4.57;1.05;;;28.30;62.30;;;;;;5023593;28;20134;-72
2023/06/15 12:27:50;;;;;;;2.90;0.90;;;28.30;62.00;;;;;;5024684;28;20030;-71
2023/06/15 12:30:17;;;;;;;2.40;1.35;;;28.30;61.00;;;;;;5021521;28;20041;-72
2023/06/15 12:32:50;;;;;;;7.00;1.17;;;28.20;62.70;;;;;;5007071;28;20390;-71
2023/06/15 12:35:37;;;;;;;19.95;1.75;;;28.20;62.00;;;;;;5023932;28;20651;-71
2023/06/15 12:38:07;;;;;;;1.70;0.82;;;28.20;61.70;;;;;;5023076;28;20034;-72
2023/06/15 12:40:39;;;;;;;3.78;0.82;;;28.10;61.40;;;;;;5006564;28;20030;-72
2023/06/15 12:43:05;;;;;;;6.43;0.90;;;28.00;61.20;;;;;;5008858;28;20041;-73
2023/06/15 12:45:35;;;;;;;5.07;1.27;;;27.90;61.80;;;;;;5027478;28;20045;-73
2023/06/15 12:48:02;;;;;;;5.13;1.73;;;27.90;61.90;;;;;;5008915;28;20549;-72
2023/06/15 12:50:29;;;;;;;2.35;1.08;;;27.90;61.30;;;;;;5007942;28;20081;-72